GOTT

Tambacounda Airport

Tambacounda, Senegal
METAR GOTT 191100Z 33002KT 9999 SCT013 OVC120 28/25 Q1014
Observed Flight Rules
Sep-19 @ 11:00 UTC (45 minutes ago) Visual Flight Rules
Wind Visibility Clouds
330° at 2 knots 10,000+ meters
  • Scattered at 1,300' AGL
  • Overcast at 12,000' AGL
Temperatures Readings
Current 28°C / 82°F
Dewpoint 25°C / 77°F
Humidity 84%
Altimeter 29.94" Hg
Pressure 1014 hPa
Elevation 50
METAR GOTT 191100Z 33002KT 9999 SCT013 OVC120 28/25 Q1014
Observed Flight Rules
Sep-19 @ 11:00 UTC
(45 minutes ago)
VFR
Wind Visibility
330° at 2 knots 10,000+ meters
Clouds
  • Scattered at 1,300' AGL
  • Overcast at 12,000' AGL
Temperature Dewpoint
28°C / 82°F 25°C / 77°F
Humidity Altimeter Pressure
84% 29.94" Hg 1014 hPa